Pasadena Park, Missouri
Current Conditions -  °F | °C
As of 7:51 PM on Monday 24 Nov 2014 (Local Time) from KSTL Reporting Station
Broken Clouds Broken Clouds  
Wind Chill: 32°   Ceiling: 8500
Heat Index: 40°   Visibility: 10mi
Dew Point: 27°   Wind: 15mph
Humidity: 60%   Direction: 280°W
Pressure: 29.94"   Gusts: 21mph
Location:  38.7055°N, 90.3021°W
Report Text: KSTL 250151Z 28013G18KT 10SM BKN085 04/M03 A2994 RMK AO2 SLP146 T00441028
Loading
Personal Weather Stations






























Interactive Weather Map New forecast layout! Learn more

10-Day Weather Forecast

Advertisements
Track Severe Weather on mobile